Terminal Aerodrome Forecast
Issued by NWS

Home | Current Version | Previous Version | Text Only | Print | Product List | Glossary Off
Versions: 1 2 3 4 5 6 7 8 9 10 11 12 13 14

000
FTUS43 KGRB 131100
TAFAUW
TAF
KAUW 131120Z 1312/1412 30005KT P6SM SCT003
      TEMPO 1312/1314 3SM BR BKN003
     FM131400 28005KT P6SM SKC
     FM131800 27005KT P6SM SCT040
     FM140000 20005KT P6SM SCT250
     FM140800 17005KT P6SM FEW035 BKN250=

USA.gov is the U.S. government's official web portal to all federal, state and local government web resources and services.